createdAt,value
2023-02-02T00:02:00.769Z,98274.28
2023-02-02T00:04:27.550Z,98329.44
2023-02-02T00:06:54.420Z,98333.25
2023-02-02T00:09:21.310Z,98332.25
2023-02-02T00:11:48.638Z,98310.25
2023-02-02T00:14:15.563Z,98319.53
2023-02-02T00:16:44.296Z,98327.28
2023-02-02T00:19:16.637Z,98335.38
2023-02-02T00:21:43.686Z,98344.84
2023-02-02T00:24:11.746Z,98335.72
2023-02-02T00:26:39.955Z,98345.44
2023-02-02T00:29:07.674Z,98323.63
2023-02-02T00:31:34.854Z,98349.03
2023-02-02T00:34:01.794Z,98351.53
2023-02-02T00:36:28.771Z,98351.81
2023-02-02T00:38:55.687Z,98354.81
2023-02-02T00:41:23.386Z,98350.00
2023-02-02T00:44:10.268Z,98342.00
2023-02-02T00:46:39.777Z,98349.69
2023-02-02T00:49:07.233Z,98336.16
2023-02-02T00:51:34.483Z,98361.69
2023-02-02T00:54:01.378Z,98358.50
2023-02-02T00:56:28.253Z,98362.25
2023-02-02T00:58:55.097Z,98361.06
2023-02-02T01:01:22.286Z,98364.03
2023-02-02T01:03:50.118Z,98351.34
2023-02-02T01:06:17.690Z,98340.63
2023-02-02T01:08:44.592Z,98375.41
2023-02-02T01:11:11.444Z,98372.22
2023-02-02T01:13:38.352Z,98376.00
2023-02-02T01:16:05.751Z,98376.28
2023-02-02T01:18:32.660Z,98379.28
2023-02-02T01:21:07.624Z,98379.88
2023-02-02T01:23:36.406Z,98375.59
2023-02-02T01:26:04.495Z,98378.56
2023-02-02T01:28:32.316Z,98376.47
2023-02-02T01:30:59.333Z,98383.56
2023-02-02T01:33:26.203Z,98378.94
2023-02-02T01:35:54.912Z,98382.72
2023-02-02T01:38:23.817Z,98387.63
2023-02-02T01:40:54.169Z,98379.78
2023-02-02T01:43:28.886Z,98367.34
2023-02-02T01:45:57.193Z,98391.47
2023-02-02T01:48:31.948Z,98388.75
2023-02-02T01:51:03.152Z,98390.94
2023-02-02T01:53:30.011Z,98396.63
2023-02-02T01:55:58.093Z,98385.34
2023-02-02T01:58:33.896Z,98324.47
2023-02-02T02:01:00.747Z,98394.50
2023-02-02T02:03:28.776Z,98393.22
2023-02-02T02:06:16.049Z,98366.84
2023-02-02T02:09:06.195Z,98374.78
2023-02-02T02:11:34.250Z,98396.78
2023-02-02T02:14:29.530Z,98374.34
2023-02-02T02:17:22.434Z,98416.47
2023-02-02T02:20:29.867Z,98409.22
2023-02-02T02:23:40.608Z,98415.22
2023-02-02T02:26:33.808Z,98426.31
2023-02-02T02:29:27.183Z,98426.00
2023-02-02T02:32:18.984Z,98428.47
2023-02-02T02:35:04.455Z,98424.72
2023-02-02T02:37:44.017Z,98423.41
2023-02-02T02:40:22.092Z,98425.00
2023-02-02T02:43:11.005Z,98419.59
2023-02-02T02:45:37.949Z,98423.16
2023-02-02T02:48:05.096Z,98430.66
2023-02-02T02:50:32.187Z,98419.59
2023-02-02T02:53:04.239Z,98434.97
2023-02-02T02:55:46.395Z,98435.56
2023-02-02T02:58:37.386Z,98413.38
2023-02-02T03:01:30.366Z,98400.84
2023-02-02T03:04:18.767Z,98437.78
2023-02-02T03:06:53.153Z,98408.56
2023-02-02T03:09:22.415Z,98441.25
2023-02-02T03:11:49.249Z,98405.50
2023-02-02T03:14:16.078Z,98443.50
2023-02-02T03:16:43.010Z,98439.78
2023-02-02T03:19:09.876Z,98441.88
2023-02-02T03:21:36.774Z,98447.50
2023-02-02T03:24:04.054Z,98447.44
2023-02-02T03:26:31.031Z,98456.28
2023-02-02T03:28:57.871Z,98448.84
2023-02-02T03:31:27.155Z,98421.72
2023-02-02T03:33:54.918Z,98450.03
2023-02-02T03:36:21.952Z,98446.00
2023-02-02T03:38:48.882Z,98450.03
2023-02-02T03:41:15.734Z,98437.78
2023-02-02T03:43:42.598Z,98439.78
2023-02-02T03:46:09.523Z,98448.69
2023-02-02T03:48:37.729Z,98438.25
2023-02-02T03:51:14.553Z,98448.41
2023-02-02T03:53:44.397Z,98439.66
2023-02-02T03:56:11.318Z,98437.19
2023-02-02T03:58:38.191Z,98438.03
2023-02-02T04:01:05.960Z,98415.53
2023-02-02T04:03:33.204Z,98433.31
2023-02-02T04:06:00.569Z,98407.94
2023-02-02T04:08:28.459Z,98435.44
2023-02-02T04:10:55.360Z,98438.22
2023-02-02T04:13:22.244Z,98447.22
2023-02-02T04:15:56.007Z,98447.47
2023-02-02T04:18:22.911Z,98445.66
2023-02-02T04:20:49.755Z,98447.03
2023-02-02T04:23:16.643Z,98446.44
2023-02-02T04:25:50.418Z,98442.03
2023-02-02T04:28:17.254Z,98441.88
2023-02-02T04:30:44.231Z,98447.84
2023-02-02T04:33:11.166Z,98436.59
2023-02-02T04:35:38.017Z,98441.38
2023-02-02T04:38:05.188Z,98437.50
2023-02-02T04:40:32.144Z,98433.97
2023-02-02T04:42:58.992Z,98438.84
2023-02-02T04:45:26.228Z,98432.91
2023-02-02T04:47:53.438Z,98432.16
2023-02-02T04:50:20.360Z,98433.19
2023-02-02T04:52:47.308Z,98435.28
2023-02-02T04:55:14.444Z,98438.16
2023-02-02T04:57:41.481Z,98432.94
2023-02-02T05:00:11.550Z,98415.00
2023-02-02T05:02:39.216Z,98429.19
2023-02-02T05:05:08.206Z,98447.38
2023-02-02T05:07:35.529Z,98455.38
2023-02-02T05:10:03.582Z,98443.72
2023-02-02T05:12:30.718Z,98422.06
2023-02-02T05:14:57.765Z,98440.59
2023-02-02T05:17:24.775Z,98440.78
2023-02-02T05:19:51.764Z,98436.91
2023-02-02T05:22:18.807Z,98432.66
2023-02-02T05:24:46.747Z,98446.13
2023-02-02T05:27:13.716Z,98444.72
2023-02-02T05:29:40.725Z,98448.06
2023-02-02T05:32:07.975Z,98445.41
2023-02-02T05:34:35.133Z,98450.59
2023-02-02T05:37:02.247Z,98439.34
2023-02-02T05:39:29.287Z,98443.47
2023-02-02T05:41:56.268Z,98442.13
2023-02-02T05:44:23.295Z,98435.97
2023-02-02T05:46:50.441Z,98443.91
2023-02-02T05:49:17.339Z,98441.63
2023-02-02T05:51:46.711Z,98443.75
2023-02-02T05:54:17.514Z,98441.50
2023-02-02T05:56:44.456Z,98444.66
2023-02-02T05:59:11.324Z,98438.50
2023-02-02T06:01:38.372Z,98444.16
2023-02-02T06:04:05.446Z,98453.75
2023-02-02T06:06:32.443Z,98448.78
2023-02-02T06:08:59.753Z,98448.06
2023-02-02T06:11:26.991Z,98445.75
2023-02-02T06:13:53.992Z,98449.38
2023-02-02T06:16:21.161Z,98442.84
2023-02-02T06:18:48.703Z,98455.50
2023-02-02T06:21:15.699Z,98454.31
2023-02-02T06:23:46.139Z,98450.00
2023-02-02T06:26:13.642Z,98453.19
2023-02-02T06:28:41.170Z,98464.28
2023-02-02T06:31:09.402Z,98455.66
2023-02-02T06:33:36.500Z,98452.88
2023-02-02T06:36:04.979Z,98454.88
2023-02-02T06:38:32.009Z,98453.75
2023-02-02T06:41:02.478Z,98453.41
2023-02-02T06:43:30.113Z,98410.34
2023-02-02T06:45:57.700Z,98457.72
2023-02-02T06:48:25.410Z,98448.25
2023-02-02T06:50:53.226Z,98455.81
2023-02-02T06:53:23.437Z,98449.16
2023-02-02T06:55:57.598Z,98460.59
2023-02-02T06:58:24.799Z,98453.06
2023-02-02T07:00:51.862Z,98456.66
2023-02-02T07:03:21.482Z,98462.56
2023-02-02T07:05:49.300Z,98453.81
2023-02-02T07:08:16.366Z,98464.47
2023-02-02T07:11:13.423Z,98468.66
2023-02-02T07:13:31.696Z,98475.25
2023-02-02T07:15:58.652Z,98469.97
2023-02-02T07:18:25.589Z,98483.03
2023-02-02T07:20:52.553Z,98451.81
2023-02-02T07:23:19.435Z,98479.94
2023-02-02T07:25:46.349Z,98480.69
2023-02-02T07:28:13.280Z,98476.69
2023-02-02T07:30:40.234Z,98481.38
2023-02-02T07:33:07.228Z,98481.25
2023-02-02T07:35:34.216Z,98487.09
2023-02-02T07:38:01.164Z,98491.31
2023-02-02T07:40:28.137Z,98497.94
2023-02-02T07:42:55.302Z,98480.03
2023-02-02T07:45:36.345Z,98491.97
2023-02-02T07:48:03.618Z,98493.78
2023-02-02T07:50:30.727Z,98498.81
2023-02-02T07:52:59.735Z,98482.09
2023-02-02T07:55:26.861Z,98504.22
2023-02-02T07:57:55.518Z,98492.75
2023-02-02T08:00:23.250Z,98491.91
2023-02-02T08:02:50.352Z,98500.94
2023-02-02T08:05:17.434Z,98503.72
2023-02-02T08:07:44.881Z,98510.44
2023-02-02T08:10:12.036Z,98511.97
2023-02-02T08:12:39.077Z,98502.94
2023-02-02T08:15:06.393Z,98511.66
2023-02-02T08:17:33.379Z,98514.72
2023-02-02T08:20:00.250Z,98513.19
2023-02-02T08:22:27.226Z,98525.78
2023-02-02T08:24:54.223Z,98540.31
2023-02-02T08:27:21.139Z,98536.00
2023-02-02T08:29:48.083Z,98546.22
2023-02-02T08:32:15.140Z,98542.28
2023-02-02T08:34:42.077Z,98536.78
2023-02-02T08:37:09.102Z,98545.47
2023-02-02T08:39:36.208Z,98536.38
2023-02-02T08:42:03.135Z,98536.38
2023-02-02T08:44:45.841Z,98541.47
2023-02-02T08:47:17.062Z,98542.41
2023-02-02T08:49:45.100Z,98538.75
2023-02-02T08:52:11.983Z,98511.00
2023-02-02T08:54:38.957Z,98543.88
2023-02-02T08:57:05.863Z,98547.13
2023-02-02T08:59:32.782Z,98541.56
2023-02-02T09:01:59.736Z,98547.72
2023-02-02T09:04:26.726Z,98549.88
2023-02-02T09:06:53.699Z,98552.72
2023-02-02T09:09:20.771Z,98540.34
2023-02-02T09:11:47.687Z,98555.38
2023-02-02T09:14:14.954Z,98549.06
2023-02-02T09:16:42.088Z,98554.47
2023-02-02T09:19:10.766Z,98563.38
2023-02-02T09:21:37.739Z,98577.28
2023-02-02T09:24:12.132Z,98569.91
2023-02-02T09:26:40.431Z,98573.53
2023-02-02T09:29:08.526Z,98560.00
2023-02-02T09:31:36.973Z,98569.56
2023-02-02T09:34:05.153Z,98574.06
2023-02-02T09:36:32.204Z,98571.91
2023-02-02T09:38:59.364Z,98565.81
2023-02-02T09:41:38.189Z,98577.59
2023-02-02T09:44:17.227Z,98575.88
2023-02-02T09:47:02.877Z,98570.50
2023-02-02T09:49:40.928Z,98532.25
2023-02-02T09:52:12.274Z,98575.56
2023-02-02T09:54:44.069Z,98577.91
2023-02-02T09:57:23.498Z,98566.56
2023-02-02T09:59:51.201Z,98560.63
2023-02-02T10:02:21.729Z,98582.03
2023-02-02T10:04:51.633Z,98579.72
2023-02-02T10:07:32.594Z,98580.56
2023-02-02T10:10:03.839Z,98578.63
2023-02-02T10:12:33.709Z,98584.94
2023-02-02T10:15:18.719Z,98581.03
2023-02-02T10:18:06.739Z,98554.94
2023-02-02T10:21:04.077Z,98583.88
2023-02-02T10:23:35.755Z,98579.91
2023-02-02T10:26:16.500Z,98576.47
2023-02-02T10:29:00.127Z,98585.31
2023-02-02T10:31:33.360Z,98589.69
2023-02-02T10:34:17.624Z,98599.91
2023-02-02T10:36:50.733Z,98600.22
2023-02-02T10:39:24.734Z,98597.22
2023-02-02T10:42:44.576Z,98596.50
2023-02-02T10:45:20.500Z,98599.69
2023-02-02T10:47:47.489Z,98581.81
2023-02-02T10:50:14.329Z,98613.50
2023-02-02T10:52:47.801Z,98609.22
2023-02-02T10:55:14.670Z,98614.41
2023-02-02T10:58:14.036Z,98608.97
2023-02-02T11:00:58.237Z,98615.34
2023-02-02T11:03:30.169Z,98606.63
2023-02-02T11:06:16.955Z,98613.72
2023-02-02T11:08:45.147Z,98615.25
2023-02-02T11:11:33.075Z,98610.84
2023-02-02T11:14:09.357Z,98618.69
2023-02-02T11:16:43.604Z,98630.94
2023-02-02T11:19:17.120Z,98625.47
2023-02-02T11:21:48.706Z,98621.94
2023-02-02T11:24:28.724Z,98626.25
2023-02-02T11:26:56.899Z,98639.66
2023-02-02T11:29:31.614Z,98638.81
2023-02-02T11:31:58.759Z,98617.03
2023-02-02T11:34:26.956Z,98637.53
2023-02-02T11:37:00.197Z,98631.44
2023-02-02T11:39:27.369Z,98626.69
2023-02-02T11:42:05.321Z,98628.16
2023-02-02T11:44:32.684Z,98635.41
2023-02-02T11:47:00.133Z,98636.09
2023-02-02T11:49:27.178Z,98626.91
2023-02-02T11:51:59.040Z,98638.31
2023-02-02T11:54:33.771Z,98653.84
2023-02-02T11:57:05.380Z,98639.44
2023-02-02T11:59:39.849Z,98661.16
2023-02-02T12:02:26.711Z,98655.59
2023-02-02T12:04:55.983Z,98651.69
2023-02-02T12:07:29.505Z,98666.19
2023-02-02T12:09:59.544Z,98661.69
2023-02-02T12:12:29.001Z,98658.88
2023-02-02T12:15:07.778Z,98672.72
2023-02-02T12:17:46.961Z,98674.78
2023-02-02T12:20:26.286Z,98690.53
2023-02-02T12:23:20.238Z,98669.31
2023-02-02T12:25:56.781Z,98656.56
2023-02-02T12:28:30.981Z,98671.44
2023-02-02T12:30:57.934Z,98691.56
2023-02-02T12:33:37.136Z,98682.00
2023-02-02T12:36:19.126Z,98665.56
2023-02-02T12:39:03.585Z,98697.72
2023-02-02T12:41:41.006Z,98688.41
2023-02-02T12:44:19.840Z,98685.19
2023-02-02T12:47:15.878Z,98695.28
2023-02-02T12:50:14.177Z,98699.91
2023-02-02T12:52:48.061Z,98700.25
2023-02-02T12:55:22.044Z,98697.88
2023-02-02T12:57:51.954Z,98709.81
2023-02-02T13:00:44.197Z,98701.78
2023-02-02T13:03:13.971Z,98700.13
2023-02-02T13:08:48.387Z,98702.88
2023-02-02T13:11:30.899Z,98711.28
2023-02-02T13:14:08.410Z,98676.84
2023-02-02T13:16:36.443Z,98696.44
2023-02-02T13:19:21.178Z,98710.97
2023-02-02T13:21:48.280Z,98657.59
2023-02-02T13:24:26.678Z,98717.91
2023-02-02T13:26:53.939Z,98723.81
2023-02-02T13:29:47.218Z,98719.84
2023-02-02T13:32:30.845Z,98726.63
2023-02-02T13:35:05.292Z,98710.50
2023-02-02T13:37:41.223Z,98734.88
2023-02-02T13:40:20.021Z,98735.81
2023-02-02T13:42:55.794Z,98739.88
2023-02-02T13:46:00.312Z,98758.06
2023-02-02T13:48:38.955Z,98750.97
2023-02-02T13:51:43.580Z,98761.22
2023-02-02T13:54:31.683Z,98745.47
2023-02-02T13:57:01.426Z,98749.00
2023-02-02T14:00:03.957Z,98750.16
2023-02-02T14:02:40.380Z,98754.84
2023-02-02T14:05:07.717Z,98752.06
2023-02-02T14:07:42.092Z,98745.56
2023-02-02T14:10:20.842Z,98761.31
2023-02-02T14:12:47.771Z,98747.56
2023-02-02T14:15:17.053Z,98750.13
2023-02-02T14:17:43.985Z,98780.97
2023-02-02T14:20:40.252Z,98789.38
2023-02-02T14:23:44.340Z,98793.13
2023-02-02T14:26:11.543Z,98792.56
2023-02-02T14:28:43.943Z,98808.97
2023-02-02T14:31:51.299Z,98823.88
2023-02-02T14:34:42.985Z,98822.41
2023-02-02T14:37:25.365Z,98855.66
2023-02-02T14:40:07.387Z,98851.47
2023-02-02T14:43:10.626Z,98860.63
2023-02-02T14:45:41.079Z,98842.91
2023-02-02T14:48:18.133Z,98842.38
2023-02-02T14:50:57.902Z,98842.63
2023-02-02T14:53:33.728Z,98820.81
2023-02-02T14:56:01.928Z,98857.88
2023-02-02T14:58:51.866Z,98810.78
2023-02-02T15:01:23.103Z,98863.88
2023-02-02T15:04:08.875Z,98867.34
2023-02-02T15:06:36.956Z,98866.34
2023-02-02T15:09:29.298Z,98878.72
2023-02-02T15:12:01.132Z,98877.72
2023-02-02T15:14:47.368Z,98886.53
2023-02-02T15:17:25.396Z,98890.34
2023-02-02T15:20:02.035Z,98864.94
2023-02-02T15:22:38.959Z,98877.50
2023-02-02T15:25:23.528Z,98902.81
2023-02-02T15:27:58.372Z,98902.59
2023-02-02T15:30:27.330Z,98888.28
2023-02-02T15:32:54.240Z,98889.66
2023-02-02T15:35:23.641Z,98914.19
2023-02-02T15:37:57.593Z,98915.09
2023-02-02T15:40:25.349Z,98933.38
2023-02-02T15:43:10.659Z,98930.06
2023-02-02T15:45:48.963Z,98933.13
2023-02-02T15:48:18.863Z,98937.25
2023-02-02T15:50:51.068Z,98944.91
2023-02-02T15:53:19.687Z,98954.06
2023-02-02T15:55:46.553Z,98944.44
2023-02-02T15:58:33.499Z,98955.28
2023-02-02T16:01:05.397Z,98962.09
2023-02-02T16:03:38.713Z,98975.53
2023-02-02T16:06:06.461Z,98983.06
2023-02-02T16:08:36.268Z,98987.28
2023-02-02T16:11:10.938Z,98986.31
2023-02-02T16:13:37.646Z,99001.72
2023-02-02T16:16:07.067Z,99004.06
2023-02-02T16:18:35.329Z,99015.22
2023-02-02T16:21:17.998Z,99025.91
2023-02-02T16:23:44.930Z,99029.97
2023-02-02T16:26:12.034Z,99030.72
2023-02-02T16:28:38.907Z,99049.94
2023-02-02T16:31:07.368Z,99046.59
2023-02-02T16:33:39.210Z,99063.97
2023-02-02T16:36:28.427Z,99064.47
2023-02-02T16:38:57.643Z,99064.06
2023-02-02T16:41:47.469Z,99078.59
2023-02-02T16:44:44.899Z,99070.97
2023-02-02T16:47:26.875Z,99082.72
2023-02-02T16:50:08.689Z,99086.63
2023-02-02T16:52:52.552Z,99099.97
2023-02-02T16:55:19.963Z,99112.06
2023-02-02T16:57:47.435Z,99116.56
2023-02-02T17:00:24.177Z,99120.75
2023-02-02T17:02:53.331Z,99103.75
2023-02-02T17:05:26.199Z,99129.56
2023-02-02T17:08:01.063Z,99134.69
2023-02-02T17:10:31.082Z,99140.66
2023-02-02T17:12:59.062Z,99155.59
2023-02-02T17:15:35.058Z,99160.91
2023-02-02T17:18:03.661Z,99153.66
2023-02-02T17:20:30.519Z,99163.94
2023-02-02T17:23:00.088Z,99165.72
2023-02-02T17:25:33.311Z,99165.72
2023-02-02T17:28:00.436Z,99168.59
2023-02-02T17:30:27.406Z,99179.97
2023-02-02T17:32:54.288Z,99189.94
2023-02-02T17:35:23.561Z,99189.75
2023-02-02T17:37:52.740Z,99161.19
2023-02-02T17:40:21.197Z,99179.13
2023-02-02T17:42:52.156Z,99200.66
2023-02-02T17:45:24.673Z,99195.34
2023-02-02T17:47:51.736Z,99201.72
2023-02-02T17:50:18.840Z,99213.09
2023-02-02T17:52:46.200Z,99200.66
2023-02-02T17:55:24.331Z,99227.97
2023-02-02T17:57:52.207Z,99214.97
2023-02-02T18:00:20.872Z,99223.91
2023-02-02T18:02:48.064Z,99181.63
2023-02-02T18:05:16.421Z,99234.91
2023-02-02T18:07:43.682Z,99241.16
2023-02-02T18:10:12.093Z,99250.75
2023-02-02T18:12:39.391Z,99245.94
2023-02-02T18:15:08.361Z,99251.69
2023-02-02T18:17:35.384Z,99267.06
2023-02-02T18:20:02.218Z,99275.34
2023-02-02T18:22:29.706Z,99282.72
2023-02-02T18:24:58.820Z,99281.22
2023-02-02T18:27:25.942Z,99284.56
2023-02-02T18:29:52.884Z,99292.56
2023-02-02T18:32:19.751Z,99297.50
2023-02-02T18:34:51.200Z,99296.31
2023-02-02T18:37:18.249Z,99304.63
2023-02-02T18:39:45.427Z,99298.69
2023-02-02T18:42:12.297Z,99310.47
2023-02-02T18:44:39.123Z,99312.50
2023-02-02T18:47:06.100Z,99334.28
2023-02-02T18:49:32.932Z,99344.00
2023-02-02T18:51:59.839Z,99360.63
2023-02-02T18:54:26.866Z,99361.03
2023-02-02T18:56:53.746Z,99370.13
2023-02-02T18:59:20.718Z,99360.13
2023-02-02T19:01:47.736Z,99379.88
2023-02-02T19:04:14.637Z,99388.97
2023-02-02T19:06:59.997Z,99400.13
2023-02-02T19:09:26.886Z,99405.38
2023-02-02T19:11:54.976Z,99414.94
2023-02-02T19:14:26.761Z,99412.31
2023-02-02T19:16:55.840Z,99424.31
2023-02-02T19:19:27.603Z,99429.84
2023-02-02T19:21:58.281Z,99415.72
2023-02-02T19:24:26.763Z,99444.03
2023-02-02T19:26:53.996Z,99450.88
2023-02-02T19:29:24.978Z,99444.72
2023-02-02T19:32:00.702Z,99448.03
2023-02-02T19:34:27.654Z,99456.31
2023-02-02T19:36:54.524Z,99461.03
2023-02-02T19:39:24.973Z,99460.81
2023-02-02T19:41:51.889Z,99466.84
2023-02-02T19:44:20.199Z,99473.97
2023-02-02T19:46:49.558Z,99488.16
2023-02-02T19:49:29.939Z,99499.09
2023-02-02T19:51:56.913Z,99496.75
2023-02-02T19:54:32.938Z,99511.72
2023-02-02T19:57:01.874Z,99478.50
2023-02-02T19:59:32.348Z,99517.13
2023-02-02T20:02:00.568Z,99526.72
2023-02-02T20:04:27.475Z,99496.31
2023-02-02T20:06:59.502Z,99519.59
2023-02-02T20:09:28.696Z,99523.31
2023-02-02T20:11:56.702Z,99533.06
2023-02-02T20:14:30.200Z,99535.88
2023-02-02T20:17:01.005Z,99525.66
2023-02-02T20:19:31.641Z,99557.09
2023-02-02T20:21:58.471Z,99551.75
2023-02-02T20:24:31.119Z,99546.97
2023-02-02T20:26:59.037Z,99554.06
2023-02-02T20:29:28.270Z,99555.22
2023-02-02T20:31:56.276Z,99561.53
2023-02-02T20:34:30.667Z,99561.28
2023-02-02T20:37:12.768Z,99565.97
2023-02-02T20:39:47.776Z,99563.06
2023-02-02T20:42:15.025Z,99574.19
2023-02-02T20:44:41.938Z,99576.66
2023-02-02T20:47:08.879Z,99567.19
2023-02-02T20:49:36.285Z,99582.66
2023-02-02T20:52:04.581Z,99557.63
2023-02-02T20:54:32.262Z,99584.34
2023-02-02T20:56:59.205Z,99589.22
2023-02-02T20:59:26.109Z,99587.59
2023-02-02T21:01:53.066Z,99593.34
2023-02-02T21:04:20.218Z,99604.44
2023-02-02T21:06:48.501Z,99598.50
2023-02-02T21:09:15.448Z,99600.41
2023-02-02T21:11:42.432Z,99588.81
2023-02-02T21:14:09.376Z,99602.59
2023-02-02T21:16:36.345Z,99601.78
2023-02-02T21:19:03.303Z,99611.31
2023-02-02T21:21:30.291Z,99614.84
2023-02-02T21:23:57.291Z,99611.63
2023-02-02T21:26:27.290Z,99606.50
2023-02-02T21:28:54.265Z,99619.25
2023-02-02T21:31:21.494Z,99613.03
2023-02-02T21:33:50.615Z,99617.41
2023-02-02T21:36:35.973Z,99613.38
2023-02-02T21:39:17.686Z,99618.81
2023-02-02T21:41:44.850Z,99613.69
2023-02-02T21:44:16.362Z,99617.81
2023-02-02T21:46:43.390Z,99621.38
2023-02-02T21:49:19.662Z,99624.38
2023-02-02T21:51:46.545Z,99614.16
2023-02-02T21:54:26.228Z,99622.78
2023-02-02T21:56:53.429Z,99621.72
2023-02-02T21:59:21.913Z,99624.69
2023-02-02T22:01:49.822Z,99628.75
2023-02-02T22:04:23.434Z,99638.25
2023-02-02T22:07:00.947Z,99638.53
2023-02-02T22:09:46.097Z,99622.16
2023-02-02T22:12:15.970Z,99645.94
2023-02-02T22:14:44.031Z,99646.50
2023-02-02T22:17:29.243Z,99648.91
2023-02-02T22:19:58.666Z,99653.84
2023-02-02T22:22:33.218Z,99657.91
2023-02-02T22:25:10.706Z,99659.53
2023-02-02T22:27:42.358Z,99655.22
2023-02-02T22:30:29.809Z,99656.31
2023-02-02T22:32:56.976Z,99666.34
2023-02-02T22:35:23.848Z,99665.81
2023-02-02T22:37:51.560Z,99668.00
2023-02-02T22:40:22.689Z,99671.25
2023-02-02T22:42:50.567Z,99669.09
2023-02-02T22:45:17.458Z,99664.75
2023-02-02T22:47:47.499Z,99671.78
2023-02-02T22:50:17.890Z,99647.50
2023-02-02T22:52:44.779Z,99644.00
2023-02-02T22:55:11.979Z,99683.97
2023-02-02T22:57:38.959Z,99669.69
2023-02-02T23:00:13.928Z,99665.38
2023-02-02T23:02:41.105Z,99659.41
2023-02-02T23:05:09.455Z,99682.38
2023-02-02T23:07:36.355Z,99690.22
2023-02-02T23:10:03.711Z,99674.56
2023-02-02T23:12:30.607Z,99670.22
2023-02-02T23:14:57.483Z,99697.81
2023-02-02T23:17:24.319Z,99707.00
2023-02-02T23:19:51.163Z,99706.47
2023-02-02T23:22:18.020Z,99715.09
2023-02-02T23:24:44.871Z,99718.09
2023-02-02T23:27:13.054Z,99712.94
2023-02-02T23:29:40.050Z,99695.91
2023-02-02T23:32:07.179Z,99726.75
2023-02-02T23:34:34.169Z,99727.53
2023-02-02T23:37:01.016Z,99724.00
2023-02-02T23:39:27.843Z,99729.44
2023-02-02T23:41:54.724Z,99731.88
2023-02-02T23:44:21.824Z,99727.00
2023-02-02T23:46:48.900Z,99736.72
2023-02-02T23:49:15.750Z,99715.34
2023-02-02T23:51:42.633Z,99744.00
2023-02-02T23:54:10.601Z,99746.97
2023-02-02T23:56:37.558Z,99745.06
2023-02-02T23:59:04.428Z,99741.53
